createdAt,value
2019-04-05T00:01:43.880Z,95355.56
2019-04-05T00:05:45.856Z,95359.34
2019-04-05T00:09:47.810Z,95351.68
2019-04-05T00:13:49.769Z,95353.53
2019-04-05T00:17:51.651Z,95367.58
2019-04-05T00:21:53.623Z,95365.86
2019-04-05T00:25:55.618Z,95363.04
2019-04-05T00:29:57.513Z,95353.53
2019-04-05T00:33:59.413Z,95356.52
2019-04-05T00:38:01.767Z,95355.77
2019-04-05T00:42:03.656Z,95359.50
2019-04-05T00:46:05.611Z,95351.77
2019-04-05T00:50:08.720Z,95357.18
2019-04-05T00:54:10.611Z,95373.23
2019-04-05T00:58:12.549Z,95375.27
2019-04-05T01:02:14.521Z,95390.20
2019-04-05T01:06:16.496Z,95385.77
2019-04-05T01:10:19.001Z,95390.95
2019-04-05T01:14:22.429Z,95386.36
2019-04-05T01:18:24.338Z,95395.52
2019-04-05T01:22:28.724Z,95395.81
2019-04-05T01:26:31.845Z,95403.45
2019-04-05T01:30:34.088Z,95414.10
2019-04-05T01:34:36.334Z,95419.20
2019-04-05T01:38:38.229Z,95429.31
2019-04-05T01:42:40.876Z,95428.45
2019-04-05T01:46:43.027Z,95431.48
2019-04-05T01:50:44.993Z,95431.18
2019-04-05T01:54:47.151Z,95438.14
2019-04-05T01:58:49.049Z,95429.30
2019-04-05T02:02:50.971Z,95436.17
2019-04-05T02:06:53.280Z,95431.23
2019-04-05T02:10:56.374Z,95427.63
2019-04-05T02:14:58.258Z,95439.71
2019-04-05T02:19:00.216Z,95434.45
2019-04-05T02:23:02.279Z,95428.70
2019-04-05T02:27:04.575Z,95433.44
2019-04-05T02:31:06.455Z,95432.08
2019-04-05T02:35:09.592Z,95444.59
2019-04-05T02:39:11.575Z,95444.97
2019-04-05T02:43:18.098Z,95446.06
2019-04-05T02:47:20.935Z,95446.12
2019-04-05T02:51:27.121Z,95454.17
2019-04-05T02:55:30.426Z,95449.41
2019-04-05T02:59:34.622Z,95440.67
2019-04-05T03:03:36.692Z,95435.87
2019-04-05T03:07:38.654Z,95439.05
2019-04-05T03:11:41.555Z,95423.08
2019-04-05T03:15:44.052Z,95429.84
2019-04-05T03:19:47.970Z,95433.09
2019-04-05T03:23:51.794Z,95434.39
2019-04-05T03:27:54.120Z,95433.09
2019-04-05T03:31:56.266Z,95440.09
2019-04-05T03:35:58.585Z,95435.87
2019-04-05T03:40:01.431Z,95448.39
2019-04-05T03:44:03.527Z,95454.45
2019-04-05T03:48:05.670Z,95457.44
2019-04-05T03:52:07.981Z,95451.73
2019-04-05T03:56:10.201Z,95456.31
2019-04-05T04:00:13.097Z,95465.16
2019-04-05T04:04:15.063Z,95469.84
2019-04-05T04:08:17.399Z,95476.57
2019-04-05T04:12:19.559Z,95469.30
2019-04-05T04:16:22.689Z,95481.07
2019-04-05T04:20:38.425Z,95474.00
2019-04-05T04:24:40.460Z,95473.78
2019-04-05T04:28:42.437Z,95470.56
2019-04-05T04:32:44.619Z,95479.59
2019-04-05T04:36:46.690Z,95483.53
2019-04-05T04:40:48.920Z,95487.39
2019-04-05T04:44:50.884Z,95495.92
2019-04-05T04:48:54.457Z,95482.48
2019-04-05T04:52:56.971Z,95498.48
2019-04-05T04:56:59.269Z,95494.69
2019-04-05T05:01:01.858Z,95495.00
2019-04-05T05:05:05.803Z,95504.25
2019-04-05T05:09:08.353Z,95500.55
2019-04-05T05:13:10.433Z,95505.30
2019-04-05T05:17:12.500Z,95507.33
2019-04-05T05:21:14.827Z,95509.23
2019-04-05T05:25:17.254Z,95504.55
2019-04-05T05:29:19.851Z,95507.73
2019-04-05T05:33:22.881Z,95506.77
2019-04-05T05:37:25.399Z,95512.48
2019-04-05T05:41:27.293Z,95509.93
2019-04-05T05:45:29.335Z,95512.24
2019-04-05T05:49:31.273Z,95509.91
2019-04-05T05:53:33.345Z,95519.10
2019-04-05T05:57:35.229Z,95521.55
2019-04-05T06:01:37.129Z,95513.23
2019-04-05T06:05:39.032Z,95523.17
2019-04-05T06:09:41.214Z,95526.44
2019-04-05T06:13:43.112Z,95533.56
2019-04-05T06:17:45.015Z,95524.56
2019-04-05T06:21:46.900Z,95519.59
2019-04-05T06:25:48.805Z,95521.18
2019-04-05T06:29:50.886Z,95525.69
2019-04-05T06:33:52.766Z,95525.73
2019-04-05T06:37:55.906Z,95522.49
2019-04-05T06:41:57.868Z,95528.34
2019-04-05T06:45:59.791Z,95522.41
2019-04-05T06:50:02.443Z,95525.31
2019-04-05T06:54:04.324Z,95533.56
2019-04-05T06:58:06.269Z,95524.30
2019-04-05T07:02:08.324Z,95533.05
2019-04-05T07:06:10.237Z,95531.27
2019-04-05T07:10:12.576Z,95539.43
2019-04-05T07:14:14.657Z,95546.00
2019-04-05T07:18:17.467Z,95545.55
2019-04-05T07:22:33.486Z,95548.34
2019-04-05T07:26:23.050Z,95546.64
2019-04-05T07:30:25.083Z,95544.61
2019-04-05T07:34:26.987Z,95542.63
2019-04-05T07:38:28.913Z,95541.51
2019-04-05T07:42:30.815Z,95543.42
2019-04-05T07:46:32.696Z,95546.66
2019-04-05T07:50:34.605Z,95552.58
2019-04-05T07:54:36.524Z,95550.48
2019-04-05T07:58:38.425Z,95549.52
2019-04-05T08:02:40.319Z,95547.16
2019-04-05T08:06:44.319Z,95557.17
2019-04-05T08:10:47.362Z,95555.83
2019-04-05T08:14:49.996Z,95547.75
2019-04-05T08:18:57.666Z,95558.29
2019-04-05T08:22:56.084Z,95562.14
2019-04-05T08:26:57.990Z,95568.19
2019-04-05T08:30:59.968Z,95572.52
2019-04-05T08:35:01.883Z,95570.09
2019-04-05T08:39:06.247Z,95575.99
2019-04-05T08:43:08.156Z,95585.04
2019-04-05T08:47:10.058Z,95584.62
2019-04-05T08:51:11.959Z,95582.23
2019-04-05T08:55:14.098Z,95575.95
2019-04-05T08:59:16.010Z,95583.20
2019-04-05T09:03:17.924Z,95585.50
2019-04-05T09:07:19.829Z,95580.78
2019-04-05T09:11:21.724Z,95586.61
2019-04-05T09:15:23.622Z,95583.98
2019-04-05T09:19:25.503Z,95584.45
2019-04-05T09:23:27.463Z,95585.95
2019-04-05T09:27:29.427Z,95584.67
2019-04-05T09:31:31.337Z,95597.73
2019-04-05T09:35:33.228Z,95600.05
2019-04-05T09:39:35.133Z,95600.61
2019-04-05T09:43:37.132Z,95609.66
2019-04-05T09:47:39.041Z,95613.36
2019-04-05T09:51:40.949Z,95612.97
2019-04-05T09:55:42.862Z,95615.31
2019-04-05T09:59:44.772Z,95614.25
2019-04-05T10:03:47.735Z,95617.04
2019-04-05T10:07:55.223Z,95610.99
2019-04-05T10:11:53.729Z,95615.55
2019-04-05T10:15:56.292Z,95610.13
2019-04-05T10:19:58.654Z,95603.30
2019-04-05T10:24:00.557Z,95611.95
2019-04-05T10:28:02.446Z,95600.89
2019-04-05T10:32:04.347Z,95603.84
2019-04-05T10:36:06.330Z,95594.91
2019-04-05T10:40:08.750Z,95601.88
2019-04-05T10:44:12.341Z,95604.38
2019-04-05T10:48:14.249Z,95601.60
2019-04-05T10:52:16.148Z,95600.92
2019-04-05T10:56:18.062Z,95587.37
2019-04-05T11:00:21.469Z,95594.97
2019-04-05T11:04:23.371Z,95579.66
2019-04-05T11:08:25.267Z,95575.80
2019-04-05T11:12:27.167Z,95572.98
2019-04-05T11:16:29.069Z,95566.41
2019-04-05T11:20:31.040Z,95562.19
2019-04-05T11:24:32.929Z,95558.98
2019-04-05T11:28:34.828Z,95557.23
2019-04-05T11:32:37.895Z,95551.59
2019-04-05T11:36:40.740Z,95546.62
2019-04-05T11:40:43.866Z,95543.41
2019-04-05T11:44:48.987Z,95544.15
2019-04-05T11:48:51.241Z,95549.50
2019-04-05T11:52:53.157Z,95546.61
2019-04-05T11:56:56.050Z,95546.36
2019-04-05T12:01:17.616Z,95556.16
2019-04-05T12:05:20.341Z,95552.47
2019-04-05T12:09:23.140Z,95550.33
2019-04-05T12:13:25.067Z,95547.13
2019-04-05T12:17:26.974Z,95539.19
2019-04-05T12:21:28.890Z,95539.70
2019-04-05T12:25:33.432Z,95533.35
2019-04-05T12:29:34.419Z,95521.20
2019-04-05T12:33:36.336Z,95519.33
2019-04-05T12:37:49.669Z,95522.52
2019-04-05T12:41:44.907Z,95521.45
2019-04-05T12:45:45.559Z,95516.16
2019-04-05T12:49:47.594Z,95515.32
2019-04-05T12:53:49.507Z,95515.84
2019-04-05T12:57:51.436Z,95511.91
2019-04-05T13:01:53.351Z,95503.43
2019-04-05T13:05:57.269Z,95501.77
2019-04-05T13:09:59.374Z,95506.55
2019-04-05T13:14:01.633Z,95501.77
2019-04-05T13:18:03.549Z,95497.52
2019-04-05T13:22:05.529Z,95503.67
2019-04-05T13:26:11.348Z,95498.84
2019-04-05T13:30:12.176Z,95495.95
2019-04-05T13:34:14.095Z,95490.03
2019-04-05T13:38:16.011Z,95480.55
2019-04-05T13:42:18.016Z,95470.68
2019-04-05T13:46:22.736Z,95479.77
2019-04-05T13:50:23.558Z,95475.45
2019-04-05T13:54:25.469Z,95468.61
2019-04-05T13:58:27.385Z,95460.63
2019-04-05T14:02:29.293Z,95452.41
2019-04-05T14:06:31.274Z,95455.81
2019-04-05T14:10:33.230Z,95449.84
2019-04-05T14:14:35.237Z,95447.78
2019-04-05T14:18:37.197Z,95450.32
2019-04-05T14:22:39.129Z,95451.87
2019-04-05T14:26:43.490Z,95450.65
2019-04-05T14:30:44.731Z,95451.41
2019-04-05T14:34:46.669Z,95452.34
2019-04-05T14:43:12.803Z,95455.12
2019-04-05T14:47:14.588Z,95448.05
2019-04-05T14:51:16.508Z,95450.20
2019-04-05T14:55:18.527Z,95439.84
2019-04-05T14:59:20.513Z,95444.84
2019-04-05T15:03:22.451Z,95436.84
2019-04-05T15:07:24.371Z,95437.91
2019-04-05T15:11:29.450Z,95433.01
2019-04-05T15:15:31.030Z,95438.11
2019-04-05T15:19:32.948Z,95430.83
2019-04-05T15:23:34.855Z,95432.87
2019-04-05T15:27:36.782Z,95428.24
2019-04-05T15:31:39.656Z,95427.31
2019-04-05T15:35:41.650Z,95425.88
2019-04-05T15:39:44.500Z,95419.72
2019-04-05T15:43:46.554Z,95412.80
2019-04-05T15:47:48.476Z,95414.58
2019-04-05T15:51:50.386Z,95418.34
2019-04-05T15:55:52.329Z,95414.81
2019-04-05T15:59:54.257Z,95415.14
2019-04-05T16:03:56.262Z,95402.52
2019-04-05T16:07:58.187Z,95409.94
2019-04-05T16:12:00.284Z,95407.88
2019-04-05T16:16:02.182Z,95405.06
2019-04-05T16:20:09.422Z,95404.46
2019-04-05T16:24:11.341Z,95403.83
2019-04-05T16:28:14.238Z,95410.23
2019-04-05T16:32:16.153Z,95404.52
2019-04-05T16:36:19.149Z,95391.05
2019-04-05T16:40:21.667Z,95394.13
2019-04-05T16:44:23.587Z,95397.21
2019-04-05T16:48:25.500Z,95391.92
2019-04-05T16:52:27.423Z,95389.00
2019-04-05T16:56:29.987Z,95395.25
2019-04-05T17:00:31.997Z,95395.77
2019-04-05T17:04:33.902Z,95407.78
2019-04-05T17:08:35.830Z,95405.98
2019-04-05T17:12:37.745Z,95395.68
2019-04-05T17:16:39.689Z,95393.55
2019-04-05T17:20:41.952Z,95392.55
2019-04-05T17:24:43.947Z,95387.88
2019-04-05T17:28:46.163Z,95388.16
2019-04-05T17:32:48.087Z,95385.56
2019-04-05T17:36:50.000Z,95387.20
2019-04-05T17:40:51.909Z,95397.24
2019-04-05T17:44:53.810Z,95395.39
2019-04-05T17:48:56.312Z,95398.05
2019-04-05T17:53:10.886Z,95404.35
2019-04-05T17:57:01.885Z,95405.67
2019-04-05T18:01:04.232Z,95408.80
2019-04-05T18:05:07.755Z,95409.83
2019-04-05T18:09:09.732Z,95406.10
2019-04-05T18:13:11.711Z,95407.41
2019-04-05T18:17:13.695Z,95407.63
2019-04-05T18:21:15.593Z,95416.05
2019-04-05T18:25:17.508Z,95421.53
2019-04-05T18:29:19.407Z,95424.14
2019-04-05T18:33:22.282Z,95422.47
2019-04-05T18:37:24.176Z,95423.88
2019-04-05T18:41:26.106Z,95420.63
2019-04-05T18:45:29.063Z,95431.72
2019-04-05T18:49:30.963Z,95442.69
2019-04-05T18:53:37.954Z,95441.09
2019-04-05T18:57:36.481Z,95447.35
2019-04-05T19:01:38.381Z,95444.56
2019-04-05T19:05:40.275Z,95448.65
2019-04-05T19:09:42.181Z,95449.91
2019-04-05T19:13:44.096Z,95452.18
2019-04-05T19:17:46.074Z,95447.88
2019-04-05T19:21:47.969Z,95453.61
2019-04-05T19:25:49.879Z,95460.68
2019-04-05T19:29:51.780Z,95457.59
2019-04-05T19:50:10.262Z,95468.96
2019-04-05T19:54:12.163Z,95389.34
2019-04-05T19:58:14.070Z,95472.64
2019-04-05T20:02:15.964Z,95395.98
2019-04-05T20:06:17.866Z,95479.00
2019-04-05T20:10:19.775Z,95479.73
2019-04-05T20:14:21.680Z,95476.38
2019-04-05T20:18:23.577Z,95482.33
2019-04-05T20:22:25.465Z,95489.29
2019-04-05T20:26:27.382Z,95496.25
2019-04-05T20:30:29.392Z,95485.81
2019-04-05T20:34:31.318Z,95497.39
2019-04-05T20:38:33.205Z,95497.95
2019-04-05T20:42:35.095Z,95507.66
2019-04-05T20:46:36.993Z,95509.41
2019-04-05T20:50:38.894Z,95510.08
2019-04-05T20:54:40.820Z,95511.13
2019-04-05T20:58:42.720Z,95507.65
2019-04-05T21:02:44.607Z,95508.52
2019-04-05T21:06:46.512Z,95511.05
2019-04-05T21:10:48.430Z,95506.05
2019-04-05T21:14:50.377Z,95508.48
2019-04-05T21:18:52.279Z,95511.06
2019-04-05T21:22:56.613Z,95505.55
2019-04-05T21:26:58.516Z,95509.25
2019-04-05T21:31:00.418Z,95508.44
2019-04-05T21:35:02.397Z,95508.09
2019-04-05T21:39:06.331Z,95517.66
2019-04-05T21:43:08.216Z,95516.22
2019-04-05T21:47:10.151Z,95516.31
2019-04-05T21:51:12.063Z,95517.41
2019-04-05T21:55:14.009Z,95519.42
2019-04-05T21:59:15.914Z,95522.64
2019-04-05T22:03:17.810Z,95522.26
2019-04-05T22:07:19.713Z,95524.14
2019-04-05T22:11:21.629Z,95526.84
2019-04-05T22:15:24.497Z,95522.04
2019-04-05T22:19:26.411Z,95528.22
2019-04-05T22:23:28.299Z,95533.17
2019-04-05T22:27:30.204Z,95533.73
2019-04-05T22:31:32.100Z,95534.28
2019-04-05T22:35:34.278Z,95544.19
2019-04-05T22:39:36.184Z,95544.37
2019-04-05T22:43:38.066Z,95551.68
2019-04-05T22:47:39.963Z,95549.73
2019-04-05T22:51:41.940Z,95552.47
2019-04-05T22:55:43.840Z,95554.17
2019-04-05T22:59:45.745Z,95549.68
2019-04-05T23:03:47.630Z,95555.28
2019-04-05T23:07:49.532Z,95556.63
2019-04-05T23:11:51.450Z,95555.73
2019-04-05T23:15:53.343Z,95554.03
2019-04-05T23:19:56.467Z,95550.87
2019-04-05T23:23:58.380Z,95564.41
2019-04-05T23:28:00.403Z,95563.55
2019-04-05T23:32:03.344Z,95573.71
2019-04-05T23:36:05.676Z,95569.80
2019-04-05T23:40:20.783Z,95568.55
2019-04-05T23:44:22.701Z,95566.91
2019-04-05T23:48:24.601Z,95571.75
2019-04-05T23:52:26.499Z,95571.73
2019-04-05T23:56:28.401Z,95569.16
